Time;durP1;ratioP1;P1;durP2;ratioP2;P2;SDS_P1;SDS_P2;PMS_P1;PMS_P2;Temp;Humidity;BMP_temperature;BMP_pressure;BME280_temperature;BME280_humidity;BME280_pressure;Samples;Min_cycle;Max_cycle;Signal;HPM_P1;HPM_P2
2022/07/06 00:00:09;;;;;;;;;;;16.20;99.90;;;;;;5088645;28;19920;-60
2022/07/06 00:02:37;;;;;;;;;;;16.20;99.90;;;;;;5089487;28;19920;-56
2022/07/06 00:05:05;;;;;;;;;;;16.20;99.90;;;;;;5088301;28;19924;-58
2022/07/06 00:07:32;;;;;;;;;;;16.10;99.90;;;;;;5088543;28;20283;-58
2022/07/06 00:09:59;;;;;;;;;;;16.20;99.90;;;;;;5086981;28;20283;-59
2022/07/06 00:12:27;;;;;;;;;;;16.10;99.90;;;;;;5087253;28;19924;-58
2022/07/06 00:14:54;;;;;;;;;;;16.20;99.90;;;;;;5086373;28;20287;-57
2022/07/06 00:17:22;;;;;;;;;;;16.10;99.90;;;;;;5089929;28;19927;-55
2022/07/06 00:19:49;;;;;;;;;;;16.10;99.90;;;;;;5091323;28;20254;-58
2022/07/06 00:22:17;;;;;;;;;;;16.00;99.90;;;;;;5089980;28;19920;-58
2022/07/06 00:24:44;;;;;;;;;;;15.90;99.90;;;;;;5089912;28;19931;-59
2022/07/06 00:27:11;;;;;;;;;;;16.00;99.90;;;;;;5091469;28;19948;-56
2022/07/06 00:29:43;;;;;;;;;;;15.90;99.90;;;;;;5091619;28;20287;-57
2022/07/06 00:32:11;;;;;;;;;;;15.90;99.90;;;;;;5091186;28;19927;-55
2022/07/06 00:34:41;;;;;;;;;;;15.90;99.90;;;;;;5090952;28;19927;-55
2022/07/06 00:37:10;;;;;;;;;;;15.90;99.90;;;;;;5091210;28;19924;-55
2022/07/06 00:39:37;;;;;;;;;;;15.80;99.90;;;;;;5089873;28;19923;-57
2022/07/06 00:42:05;;;;;;;;;;;15.70;99.90;;;;;;5073226;28;19920;-56
2022/07/06 00:44:33;;;;;;;;;;;15.70;99.90;;;;;;5101367;28;19920;-58
2022/07/06 00:47:00;;;;;;;;;;;15.60;99.90;;;;;;5072731;28;19920;-55
2022/07/06 00:52:14;;;;;;;;;;;15.50;99.90;;;;;;5091023;28;20286;-57
2022/07/06 00:54:42;;;;;;;;;;;15.40;99.90;;;;;;5089594;28;19920;-56
2022/07/06 00:57:10;;;;;;;;;;;15.40;99.90;;;;;;5090757;28;19931;-58
2022/07/06 00:59:37;;;;;;;;;;;15.40;99.90;;;;;;5089878;28;19935;-55
2022/07/06 01:02:05;;;;;;;;;;;15.40;99.90;;;;;;5089610;28;19924;-55
2022/07/06 01:04:32;;;;;;;;;;;15.40;99.90;;;;;;5085285;28;20291;-55
2022/07/06 01:07:00;;;;;;;;;;;15.30;99.90;;;;;;5085447;28;19919;-55
2022/07/06 01:09:27;;;;;;;;;;;15.20;99.90;;;;;;5090416;28;19926;-55
2022/07/06 01:11:56;;;;;;;;;;;15.20;99.90;;;;;;5089372;28;19920;-55
2022/07/06 01:14:24;;;;;;;;;;;15.10;99.90;;;;;;5091286;28;19939;-56
2022/07/06 01:16:51;;;;;;;;;;;15.10;99.90;;;;;;5106750;28;19924;-58
2022/07/06 01:19:19;;;;;;;;;;;15.00;99.90;;;;;;5090184;28;19920;-56
2022/07/06 01:21:46;;;;;;;;;;;14.90;99.90;;;;;;5088950;28;19920;-57
2022/07/06 01:24:14;;;;;;;;;;;14.90;99.90;;;;;;5089963;28;20408;-58
2022/07/06 01:26:41;;;;;;;;;;;14.90;99.90;;;;;;5088748;28;19926;-57
2022/07/06 01:29:09;;;;;;;;;;;14.90;99.90;;;;;;5091666;28;20408;-57
2022/07/06 01:31:45;;;;;;;;;;;14.90;99.90;;;;;;5095015;28;19920;-57
2022/07/06 01:34:13;;;;;;;;;;;14.90;99.90;;;;;;5092017;28;19920;-58
2022/07/06 01:36:41;;;;;;;;;;;15.00;99.90;;;;;;5093108;28;19920;-57
2022/07/06 01:39:08;;;;;;;;;;;15.00;99.90;;;;;;5093118;28;20010;-57
2022/07/06 01:41:37;;;;;;;;;;;15.00;99.90;;;;;;5093136;28;19927;-57
2022/07/06 01:44:05;;;;;;;;;;;15.00;99.90;;;;;;5092286;28;19920;-57
2022/07/06 01:46:33;;;;;;;;;;;15.00;99.90;;;;;;5102852;28;19919;-57
2022/07/06 01:49:01;;;;;;;;;;;15.00;99.90;;;;;;5113510;28;20282;-56
2022/07/06 01:51:28;;;;;;;;;;;15.00;99.90;;;;;;5112412;28;19920;-56
2022/07/06 01:53:56;;;;;;;;;;;15.10;99.90;;;;;;5112163;28;19919;-55
2022/07/06 01:56:23;;;;;;;;;;;15.10;99.90;;;;;;5113505;28;19923;-57
2022/07/06 01:58:56;;;;;;;;;;;15.10;99.90;;;;;;5095251;28;19926;-57
2022/07/06 02:01:24;;;;;;;;;;;15.10;99.90;;;;;;5112121;28;20300;-58
2022/07/06 02:03:51;;;;;;;;;;;15.10;99.90;;;;;;5113014;28;19927;-57
2022/07/06 02:06:19;;;;;;;;;;;15.10;99.90;;;;;;5111949;28;19919;-57
2022/07/06 02:08:48;;;;;;;;;;;15.20;99.90;;;;;;5111868;28;19927;-57
2022/07/06 02:11:15;;;;;;;;;;;15.20;99.90;;;;;;5111900;28;20393;-55
2022/07/06 02:13:44;;;;;;;;;;;15.20;99.90;;;;;;5111509;28;19946;-58
2022/07/06 02:16:12;;;;;;;;;;;15.20;99.90;;;;;;5111800;28;19927;-55
2022/07/06 02:18:39;;;;;;;;;;;15.20;99.90;;;;;;5111624;28;19943;-57
2022/07/06 02:21:07;;;;;;;;;;;15.20;99.90;;;;;;5112837;28;19919;-56
2022/07/06 02:23:34;;;;;;;;;;;15.20;99.90;;;;;;5111622;28;20362;-56
2022/07/06 02:26:03;;;;;;;;;;;15.20;99.90;;;;;;5094708;28;19926;-57
2022/07/06 02:28:31;;;;;;;;;;;15.30;99.90;;;;;;5111748;28;19926;-57
2022/07/06 02:30:58;;;;;;;;;;;15.30;99.90;;;;;;5111628;28;19919;-57
2022/07/06 02:33:28;;;;;;;;;;;15.20;99.90;;;;;;5111490;28;19965;-56
2022/07/06 02:35:55;;;;;;;;;;;15.20;99.90;;;;;;5112815;28;19927;-56
2022/07/06 02:38:23;;;;;;;;;;;15.20;99.90;;;;;;5112816;28;19927;-57
2022/07/06 02:40:51;;;;;;;;;;;15.20;99.90;;;;;;5111378;28;20295;-57
2022/07/06 02:43:18;;;;;;;;;;;15.20;99.90;;;;;;5094445;28;19920;-57
2022/07/06 02:45:46;;;;;;;;;;;15.20;99.90;;;;;;5112606;28;19926;-58
2022/07/06 02:48:15;;;;;;;;;;;15.20;99.90;;;;;;5111374;28;19926;-58
2022/07/06 02:50:42;;;;;;;;;;;15.20;99.90;;;;;;5111520;28;19927;-57
2022/07/06 02:53:10;;;;;;;;;;;15.30;99.90;;;;;;5111700;28;19957;-58
2022/07/06 02:55:38;;;;;;;;;;;15.30;99.90;;;;;;5110679;28;19920;-59
2022/07/06 02:58:06;;;;;;;;;;;15.30;99.90;;;;;;5111269;28;20345;-60
2022/07/06 03:00:34;;;;;;;;;;;15.30;99.90;;;;;;5112458;28;19930;-57
2022/07/06 03:03:02;;;;;;;;;;;15.30;99.90;;;;;;5111514;28;19934;-59
2022/07/06 03:05:31;;;;;;;;;;;15.30;99.90;;;;;;5111492;28;19919;-56
2022/07/06 03:07:59;;;;;;;;;;;15.40;99.90;;;;;;5111238;28;19919;-58
2022/07/06 03:10:27;;;;;;;;;;;15.30;99.90;;;;;;5111447;28;19920;-60
2022/07/06 03:12:55;;;;;;;;;;;15.40;99.90;;;;;;5111478;28;20306;-57
2022/07/06 03:15:23;;;;;;;;;;;15.40;99.90;;;;;;5112164;28;19919;-55
2022/07/06 03:17:50;;;;;;;;;;;15.40;99.90;;;;;;5111195;28;19920;-56
2022/07/06 03:20:19;;;;;;;;;;;15.40;99.90;;;;;;5111055;28;19919;-55
2022/07/06 03:22:48;;;;;;;;;;;15.40;99.90;;;;;;5110956;28;19923;-56
2022/07/06 03:25:16;;;;;;;;;;;15.40;99.90;;;;;;5110917;28;19926;-55
2022/07/06 03:27:44;;;;;;;;;;;15.40;99.90;;;;;;5111125;28;19927;-56
2022/07/06 03:30:14;;;;;;;;;;;15.40;99.90;;;;;;5111955;28;19919;-56
2022/07/06 03:32:47;;;;;;;;;;;15.40;99.90;;;;;;5115030;28;19942;-55
2022/07/06 03:35:16;;;;;;;;;;;15.40;99.90;;;;;;5115147;28;19927;-56
2022/07/06 03:37:44;;;;;;;;;;;15.40;99.90;;;;;;5115059;28;19920;-56
2022/07/06 03:40:14;;;;;;;;;;;15.40;99.90;;;;;;5115061;28;19927;-56
2022/07/06 03:42:44;;;;;;;;;;;15.40;99.90;;;;;;5115060;28;19927;-55
2022/07/06 03:45:12;;;;;;;;;;;15.40;99.90;;;;;;5114527;28;20483;-55
2022/07/06 03:47:40;;;;;;;;;;;15.40;99.90;;;;;;5081587;28;19920;-56
2022/07/06 03:50:09;;;;;;;;;;;15.40;99.90;;;;;;5114603;28;19929;-58
2022/07/06 03:52:39;;;;;;;;;;;15.40;99.90;;;;;;5114394;28;19920;-56
2022/07/06 03:55:09;;;;;;;;;;;15.40;99.90;;;;;;5115855;28;19924;-56
2022/07/06 03:57:40;;;;;;;;;;;15.40;99.90;;;;;;5097715;28;20379;-56
2022/07/06 04:00:10;;;;;;;;;;;15.40;99.90;;;;;;5114425;28;19919;-56
2022/07/06 04:02:43;;;;;;;;;;;15.50;99.90;;;;;;5114217;28;19919;-58
2022/07/06 04:05:20;;;;;;;;;;;15.40;99.90;;;;;;5114401;28;19920;-58
2022/07/06 04:07:49;;;;;;;;;;;15.50;99.90;;;;;;5114368;28;20359;-58
2022/07/06 04:10:17;;;;;;;;;;;15.50;99.90;;;;;;5114224;28;20378;-57
2022/07/06 04:12:45;;;;;;;;;;;15.40;99.90;;;;;;5097087;28;19924;-56
2022/07/06 04:15:14;;;;;;;;;;;15.40;99.90;;;;;;5114112;28;19920;-55
2022/07/06 04:17:54;;;;;;;;;;;15.40;99.90;;;;;;5097062;28;19919;-58
2022/07/06 04:20:29;;;;;;;;;;;15.40;99.90;;;;;;5114097;28;19927;-56
2022/07/06 04:22:58;;;;;;;;;;;15.40;99.90;;;;;;5113853;28;19924;-57
2022/07/06 04:25:26;;;;;;;;;;;15.40;99.90;;;;;;5096757;28;20021;-58
2022/07/06 04:27:57;;;;;;;;;;;15.40;99.90;;;;;;5113957;28;19931;-58
2022/07/06 04:30:26;;;;;;;;;;;15.40;99.90;;;;;;5114129;28;19920;-58
2022/07/06 04:32:55;;;;;;;;;;;15.40;99.90;;;;;;5113875;28;19920;-57
2022/07/06 04:35:25;;;;;;;;;;;15.40;99.90;;;;;;5113851;28;19923;-57
2022/07/06 04:37:54;;;;;;;;;;;15.40;99.90;;;;;;5113966;28;19919;-58
2022/07/06 04:40:22;;;;;;;;;;;15.40;99.90;;;;;;5113653;28;19919;-58
2022/07/06 04:42:53;;;;;;;;;;;15.40;99.90;;;;;;5113121;28;20378;-57
2022/07/06 04:45:22;;;;;;;;;;;15.40;99.90;;;;;;5113575;28;19926;-55
2022/07/06 04:47:50;;;;;;;;;;;15.40;99.90;;;;;;5103536;28;19927;-58
2022/07/06 04:50:18;;;;;;;;;;;15.30;99.90;;;;;;5072746;28;20315;-58
2022/07/06 04:52:47;;;;;;;;;;;15.30;99.90;;;;;;5089614;28;20284;-58
2022/07/06 04:55:14;;;;;;;;;;;15.30;99.90;;;;;;5089609;28;19920;-58
2022/07/06 04:57:42;;;;;;;;;;;15.30;99.90;;;;;;5089427;28;19920;-57
2022/07/06 05:00:12;;;;;;;;;;;15.20;99.90;;;;;;5089563;28;19920;-58
2022/07/06 05:02:41;;;;;;;;;;;15.20;99.90;;;;;;5090917;27;19927;-56
2022/07/06 05:05:11;;;;;;;;;;;15.20;99.90;;;;;;5086113;28;19953;-58
2022/07/06 05:07:39;;;;;;;;;;;15.20;99.90;;;;;;5100911;28;19920;-55
2022/07/06 05:10:11;;;;;;;;;;;15.20;99.90;;;;;;5085903;28;19927;-58
2022/07/06 05:12:42;;;;;;;;;;;15.20;99.90;;;;;;5089262;28;20390;-59
2022/07/06 05:15:10;;;;;;;;;;;15.20;99.90;;;;;;5088969;28;19920;-58
2022/07/06 05:17:37;;;;;;;;;;;15.20;99.90;;;;;;5090303;28;19931;-56
2022/07/06 05:20:06;;;;;;;;;;;15.30;99.90;;;;;;5089099;28;19920;-58
2022/07/06 05:22:37;;;;;;;;;;;15.30;99.90;;;;;;5087923;28;20406;-58
2022/07/06 05:25:14;;;;;;;;;;;15.30;99.90;;;;;;5089025;28;19927;-58
2022/07/06 05:27:43;;;;;;;;;;;15.30;99.90;;;;;;5088627;28;20295;-57
2022/07/06 05:30:11;;;;;;;;;;;15.40;99.90;;;;;;5089015;28;19927;-57
2022/07/06 05:32:39;;;;;;;;;;;15.40;99.90;;;;;;5089464;28;19924;-59
2022/07/06 05:35:07;;;;;;;;;;;15.40;99.90;;;;;;5088900;28;19923;-58
2022/07/06 05:37:55;;;;;;;;;;;15.40;99.90;;;;;;5085459;28;20302;-58
2022/07/06 05:40:22;;;;;;;;;;;15.50;99.90;;;;;;5085429;28;19919;-58
2022/07/06 05:42:51;;;;;;;;;;;15.50;99.90;;;;;;5067835;28;20361;-57
2022/07/06 05:45:19;;;;;;;;;;;15.60;99.90;;;;;;5085570;28;19927;-57
2022/07/06 05:50:35;;;;;;;;;;;15.60;99.90;;;;;;5087927;28;19920;-56
2022/07/06 05:53:04;;;;;;;;;;;15.60;99.90;;;;;;5086591;28;19920;-57
2022/07/06 05:55:45;;;;;;;;;;;15.60;99.90;;;;;;5085928;28;19931;-58
2022/07/06 05:58:13;;;;;;;;;;;15.70;99.90;;;;;;5088830;28;19923;-58
2022/07/06 06:00:41;;;;;;;;;;;15.70;99.90;;;;;;5088662;28;19927;-60
2022/07/06 06:03:14;;;;;;;;;;;15.70;99.90;;;;;;5088430;28;20379;-57
2022/07/06 06:05:42;;;;;;;;;;;15.70;99.90;;;;;;5088566;28;19920;-58
2022/07/06 06:08:11;;;;;;;;;;;15.70;99.90;;;;;;5088620;28;19931;-57
2022/07/06 06:10:39;;;;;;;;;;;15.80;99.90;;;;;;5105338;28;19920;-56
2022/07/06 06:13:09;;;;;;;;;;;15.80;99.90;;;;;;5088002;28;19923;-56
2022/07/06 06:15:38;;;;;;;;;;;15.80;99.90;;;;;;5088194;28;19920;-56
2022/07/06 06:18:06;;;;;;;;;;;15.80;99.90;;;;;;5088553;28;19926;-56
2022/07/06 06:20:33;;;;;;;;;;;15.80;99.90;;;;;;5089627;28;19920;-58
2022/07/06 06:23:03;;;;;;;;;;;15.70;99.90;;;;;;5074805;28;20314;-57
2022/07/06 06:25:31;;;;;;;;;;;15.70;99.90;;;;;;5109586;28;19920;-58
2022/07/06 06:27:58;;;;;;;;;;;15.70;99.90;;;;;;5108103;28;19931;-59
2022/07/06 06:30:26;;;;;;;;;;;15.70;99.90;;;;;;5109248;28;19966;-59
2022/07/06 06:33:05;;;;;;;;;;;15.80;99.90;;;;;;5108829;28;19924;-56
2022/07/06 06:35:32;;;;;;;;;;;15.80;99.90;;;;;;5087376;28;19927;-58
2022/07/06 06:38:00;;;;;;;;;;;15.80;99.90;;;;;;5084333;28;19924;-59
2022/07/06 06:40:27;;;;;;;;;;;15.80;99.90;;;;;;5085849;28;19927;-57
2022/07/06 06:42:55;;;;;;;;;;;15.80;99.90;;;;;;5085407;28;19931;-56
2022/07/06 06:45:23;;;;;;;;;;;15.80;99.90;;;;;;5068803;28;19920;-58
2022/07/06 06:47:51;;;;;;;;;;;15.80;99.90;;;;;;5088596;28;20387;-58
2022/07/06 06:50:18;;;;;;;;;;;15.80;99.90;;;;;;5089336;28;19920;-57
2022/07/06 06:52:46;;;;;;;;;;;15.80;99.90;;;;;;5087394;28;20295;-58
2022/07/06 06:55:13;;;;;;;;;;;15.90;99.90;;;;;;5088650;28;19920;-58
2022/07/06 06:57:40;;;;;;;;;;;15.90;99.90;;;;;;5086129;28;19920;-56
2022/07/06 07:00:08;;;;;;;;;;;15.90;99.90;;;;;;5085587;28;19924;-57
2022/07/06 07:02:36;;;;;;;;;;;16.00;99.90;;;;;;5085257;28;19920;-59
2022/07/06 07:05:03;;;;;;;;;;;16.00;99.90;;;;;;5086227;28;19923;-58
2022/07/06 07:07:31;;;;;;;;;;;16.00;99.90;;;;;;5089715;28;20309;-56
2022/07/06 07:09:59;;;;;;;;;;;16.00;99.90;;;;;;5089714;28;19931;-56
2022/07/06 07:12:27;;;;;;;;;;;16.00;99.90;;;;;;5089731;28;19924;-56
2022/07/06 07:14:54;;;;;;;;;;;16.00;99.90;;;;;;5088863;28;19927;-58
2022/07/06 07:17:22;;;;;;;;;;;16.00;99.90;;;;;;5089250;28;19939;-56
2022/07/06 07:19:49;;;;;;;;;;;16.00;99.90;;;;;;5088985;28;19927;-56
2022/07/06 07:22:17;;;;;;;;;;;16.00;99.90;;;;;;5089435;28;19940;-57
2022/07/06 07:24:44;;;;;;;;;;;16.00;99.90;;;;;;5089268;28;19924;-58
2022/07/06 07:27:12;;;;;;;;;;;16.00;99.90;;;;;;5089141;28;19924;-57
2022/07/06 07:29:39;;;;;;;;;;;16.00;99.90;;;;;;5088557;28;19939;-57
2022/07/06 07:32:06;;;;;;;;;;;16.10;99.90;;;;;;5089006;28;19924;-56
2022/07/06 07:34:34;;;;;;;;;;;16.10;99.90;;;;;;5088947;28;19998;-57
2022/07/06 07:37:02;;;;;;;;;;;16.10;99.90;;;;;;5089789;28;19927;-60
2022/07/06 07:39:29;;;;;;;;;;;16.10;99.90;;;;;;5087172;28;20392;-58
2022/07/06 07:41:57;;;;;;;;;;;16.10;99.90;;;;;;5089334;28;19920;-56
2022/07/06 07:44:26;;;;;;;;;;;16.10;99.90;;;;;;5088626;28;19950;-58
2022/07/06 07:46:54;;;;;;;;;;;16.20;99.90;;;;;;5089173;28;19924;-59
2022/07/06 07:49:22;;;;;;;;;;;16.20;99.90;;;;;;5088538;28;19924;-56
2022/07/06 07:51:49;;;;;;;;;;;16.20;99.90;;;;;;5089151;28;19920;-58
2022/07/06 07:54:17;;;;;;;;;;;16.30;99.90;;;;;;5088864;28;19919;-58
2022/07/06 07:56:45;;;;;;;;;;;16.40;99.90;;;;;;5088764;28;19931;-57
2022/07/06 07:59:12;;;;;;;;;;;16.40;99.90;;;;;;5088331;28;20508;-59
2022/07/06 08:01:41;;;;;;;;;;;16.50;99.90;;;;;;5087458;28;19920;-58
2022/07/06 08:04:08;;;;;;;;;;;16.50;99.90;;;;;;5088208;28;19923;-58
2022/07/06 08:06:36;;;;;;;;;;;16.50;99.90;;;;;;5088719;28;19920;-57
2022/07/06 08:09:04;;;;;;;;;;;16.50;99.90;;;;;;5088793;28;19943;-62
2022/07/06 08:11:32;;;;;;;;;;;16.50;99.90;;;;;;5087248;28;19943;-58
2022/07/06 08:14:00;;;;;;;;;;;16.50;99.90;;;;;;5086707;28;19924;-58
2022/07/06 08:16:27;;;;;;;;;;;16.50;99.90;;;;;;5088837;28;19920;-58
2022/07/06 08:18:55;;;;;;;;;;;16.60;99.90;;;;;;5091384;28;19920;-58
2022/07/06 08:21:23;;;;;;;;;;;16.60;99.90;;;;;;5091922;28;19924;-58
2022/07/06 08:23:53;;;;;;;;;;;16.50;99.90;;;;;;5091375;28;19924;-59
2022/07/06 08:26:21;;;;;;;;;;;16.60;99.90;;;;;;5089918;28;19927;-57
2022/07/06 08:28:49;;;;;;;;;;;16.60;99.90;;;;;;5091285;28;19924;-58
2022/07/06 08:31:16;;;;;;;;;;;16.70;99.90;;;;;;5091961;28;20016;-59
2022/07/06 08:34:04;;;;;;;;;;;16.70;99.90;;;;;;5089779;28;19920;-58
2022/07/06 08:36:31;;;;;;;;;;;16.90;99.90;;;;;;5091059;28;19920;-58
2022/07/06 08:38:59;;;;;;;;;;;17.00;99.90;;;;;;5091205;28;19920;-58
2022/07/06 08:41:28;;;;;;;;;;;17.00;99.90;;;;;;5091262;28;19931;-58
2022/07/06 08:43:56;;;;;;;;;;;17.00;99.90;;;;;;5090993;28;19931;-58
2022/07/06 08:46:23;;;;;;;;;;;16.90;99.90;;;;;;5091683;28;19920;-56
2022/07/06 08:48:51;;;;;;;;;;;16.80;99.90;;;;;;5091575;28;19927;-56
2022/07/06 08:51:20;;;;;;;;;;;16.60;99.90;;;;;;5090276;28;19920;-56
2022/07/06 08:53:55;;;;;;;;;;;16.90;99.90;;;;;;5091210;28;19931;-57
2022/07/06 08:56:22;;;;;;;;;;;17.00;99.90;;;;;;5090969;28;19931;-57
2022/07/06 08:58:49;;;;;;;;;;;17.20;99.90;;;;;;5090695;28;19939;-57
2022/07/06 09:01:17;;;;;;;;;;;17.30;99.90;;;;;;5090501;28;20283;-58
2022/07/06 09:03:45;;;;;;;;;;;17.50;99.90;;;;;;5090453;28;19919;-58
2022/07/06 09:06:16;;;;;;;;;;;17.60;99.90;;;;;;5089374;28;19920;-58
2022/07/06 09:08:43;;;;;;;;;;;17.80;99.90;;;;;;5090744;28;20323;-60
2022/07/06 09:11:11;;;;;;;;;;;17.90;99.90;;;;;;5090617;28;19924;-60
2022/07/06 09:13:38;;;;;;;;;;;17.90;99.90;;;;;;5090298;28;20283;-61
2022/07/06 09:16:10;;;;;;;;;;;17.80;99.90;;;;;;5088895;28;20341;-60
2022/07/06 09:18:58;;;;;;;;;;;17.70;99.90;;;;;;5090085;28;20263;-59
2022/07/06 09:21:26;;;;;;;;;;;17.70;99.90;;;;;;5089194;28;19927;-59
2022/07/06 09:23:55;;;;;;;;;;;17.80;99.90;;;;;;5089893;28;19927;-58
2022/07/06 09:26:23;;;;;;;;;;;17.90;99.90;;;;;;5089788;28;20418;-59
2022/07/06 09:28:51;;;;;;;;;;;17.90;99.90;;;;;;5089340;28;19920;-57
2022/07/06 09:31:18;;;;;;;;;;;18.00;99.90;;;;;;5090184;28;19927;-57
2022/07/06 09:33:55;;;;;;;;;;;18.20;99.90;;;;;;5089983;28;19930;-56
2022/07/06 09:36:41;;;;;;;;;;;18.30;99.90;;;;;;5090084;28;19920;-58
2022/07/06 09:39:15;;;;;;;;;;;18.30;99.90;;;;;;5089867;28;19920;-58
2022/07/06 09:41:47;;;;;;;;;;;18.20;99.90;;;;;;5089920;28;19924;-58
2022/07/06 09:44:22;;;;;;;;;;;18.30;99.90;;;;;;5089755;28;20416;-59
2022/07/06 09:46:50;;;;;;;;;;;18.40;99.90;;;;;;5090197;28;19927;-58
2022/07/06 09:49:18;;;;;;;;;;;18.60;99.90;;;;;;5089451;28;19930;-56
2022/07/06 09:51:47;;;;;;;;;;;18.70;99.90;;;;;;5090415;28;19924;-56
2022/07/06 09:54:14;;;;;;;;;;;18.70;99.90;;;;;;5089705;28;19924;-56
2022/07/06 09:56:43;;;;;;;;;;;18.70;99.90;;;;;;5088517;28;19927;-56
2022/07/06 09:59:11;;;;;;;;;;;18.70;99.90;;;;;;5089642;28;19920;-58
2022/07/06 10:01:39;;;;;;;;;;;18.70;99.90;;;;;;5088276;28;19927;-56
2022/07/06 10:04:08;;;;;;;;;;;18.80;99.90;;;;;;5089427;28;19927;-57
2022/07/06 10:06:36;;;;;;;;;;;18.80;99.90;;;;;;5089562;28;20078;-56
2022/07/06 10:09:05;;;;;;;;;;;18.90;99.90;;;;;;5090682;28;20375;-56
2022/07/06 10:11:40;;;;;;;;;;;18.90;99.90;;;;;;5088351;28;20414;-56
2022/07/06 10:14:08;;;;;;;;;;;18.90;99.90;;;;;;5089195;28;19920;-56
2022/07/06 10:16:37;;;;;;;;;;;18.80;99.90;;;;;;5089338;28;19920;-58
2022/07/06 10:19:06;;;;;;;;;;;18.70;99.90;;;;;;5088945;28;19920;-57
2022/07/06 10:21:38;;;;;;;;;;;18.70;99.90;;;;;;5088360;28;19931;-57
2022/07/06 10:24:06;;;;;;;;;;;18.60;99.90;;;;;;5089195;28;19920;-57
2022/07/06 10:26:34;;;;;;;;;;;18.60;99.90;;;;;;5087977;28;19919;-56
2022/07/06 10:29:03;;;;;;;;;;;18.70;99.90;;;;;;5088957;28;19920;-56
2022/07/06 10:31:32;;;;;;;;;;;18.80;99.90;;;;;;5089513;28;19924;-56
2022/07/06 10:34:00;;;;;;;;;;;18.90;99.90;;;;;;5088803;28;19920;-56
2022/07/06 10:36:29;;;;;;;;;;;19.10;99.90;;;;;;5088079;28;19930;-56
2022/07/06 10:38:57;;;;;;;;;;;19.30;99.90;;;;;;5089775;28;19935;-58
2022/07/06 10:41:37;;;;;;;;;;;19.50;99.90;;;;;;5088671;28;19919;-58
2022/07/06 10:44:24;;;;;;;;;;;19.60;99.90;;;;;;5088729;28;19919;-58
2022/07/06 10:46:58;;;;;;;;;;;19.80;99.90;;;;;;5088758;28;20175;-59
2022/07/06 10:49:26;;;;;;;;;;;20.00;99.90;;;;;;5088607;28;19946;-58
2022/07/06 10:52:17;;;;;;;;;;;20.10;99.90;;;;;;5089315;28;19920;-58
2022/07/06 10:54:46;;;;;;;;;;;20.20;99.90;;;;;;5103784;28;20370;-59
2022/07/06 10:57:18;;;;;;;;;;;20.20;99.90;;;;;;5109070;28;19920;-59
2022/07/06 11:00:02;;;;;;;;;;;20.10;99.90;;;;;;5109222;28;19923;-57
2022/07/06 11:02:38;;;;;;;;;;;20.10;99.90;;;;;;5109216;28;19923;-57
2022/07/06 11:05:10;;;;;;;;;;;20.10;99.90;;;;;;5108749;28;19934;-57
2022/07/06 11:07:48;;;;;;;;;;;20.00;99.90;;;;;;5103617;28;19920;-58
2022/07/06 11:10:16;;;;;;;;;;;20.10;99.90;;;;;;5088800;28;19924;-56
2022/07/06 11:12:46;;;;;;;;;;;20.30;99.90;;;;;;5088515;28;20501;-56
2022/07/06 11:15:34;;;;;;;;;;;20.40;99.90;;;;;;5088504;28;19924;-56
2022/07/06 11:18:12;;;;;;;;;;;20.50;99.90;;;;;;5088290;28;19924;-56
2022/07/06 11:20:39;;;;;;;;;;;20.70;99.90;;;;;;5089309;28;19924;-55
2022/07/06 11:23:07;;;;;;;;;;;20.90;99.90;;;;;;5090062;28;19927;-56
2022/07/06 11:25:34;;;;;;;;;;;21.20;99.90;;;;;;5088441;28;19920;-57
2022/07/06 11:28:02;;;;;;;;;;;21.30;99.90;;;;;;5087228;28;19924;-58
2022/07/06 11:30:29;;;;;;;;;;;21.30;99.90;;;;;;5088652;28;19932;-58
2022/07/06 11:33:01;;;;;;;;;;;21.40;99.90;;;;;;5088515;28;19927;-59
2022/07/06 11:35:29;;;;;;;;;;;21.30;99.90;;;;;;5088453;28;19920;-58
2022/07/06 11:37:56;;;;;;;;;;;21.30;99.90;;;;;;5088371;28;20093;-58
2022/07/06 11:40:24;;;;;;;;;;;21.30;99.90;;;;;;5087164;28;19931;-56
2022/07/06 11:42:54;;;;;;;;;;;21.20;99.90;;;;;;5088512;28;19920;-58
2022/07/06 11:45:25;;;;;;;;;;;21.20;99.90;;;;;;5087342;28;19920;-58
2022/07/06 11:48:09;;;;;;;;;;;21.20;99.90;;;;;;5088040;28;19935;-56
2022/07/06 11:50:36;;;;;;;;;;;21.20;99.90;;;;;;5088472;28;19924;-57
2022/07/06 11:53:04;;;;;;;;;;;21.20;99.90;;;;;;5092634;28;19920;-59
2022/07/06 11:55:32;;;;;;;;;;;21.40;99.90;;;;;;5092002;28;20299;-58
2022/07/06 11:58:01;;;;;;;;;;;21.50;99.90;;;;;;5092015;28;19927;-58
2022/07/06 12:00:28;;;;;;;;;;;21.50;99.90;;;;;;5091759;28;20397;-57
2022/07/06 12:03:00;;;;;;;;;;;21.40;99.90;;;;;;5091719;28;19920;-56
2022/07/06 12:05:31;;;;;;;;;;;21.30;99.90;;;;;;5091973;28;20409;-57
2022/07/06 12:08:05;;;;;;;;;;;21.20;99.90;;;;;;5093602;28;19924;-59
2022/07/06 12:10:35;;;;;;;;;;;21.10;99.90;;;;;;5111066;28;19919;-60
2022/07/06 12:13:03;;;;;;;;;;;21.00;99.90;;;;;;5110160;28;19923;-57
2022/07/06 12:15:33;;;;;;;;;;;20.90;99.90;;;;;;5091591;28;20311;-58
2022/07/06 12:18:01;;;;;;;;;;;20.90;99.90;;;;;;5091630;28;19920;-59
2022/07/06 12:20:29;;;;;;;;;;;20.90;99.90;;;;;;5091697;28;20303;-58
2022/07/06 12:23:03;;;;;;;;;;;20.80;99.90;;;;;;5091884;28;19998;-57
2022/07/06 12:25:34;;;;;;;;;;;20.70;99.90;;;;;;5091358;28;19919;-58
2022/07/06 12:28:01;;;;;;;;;;;20.60;99.90;;;;;;5090292;28;20395;-59
2022/07/06 12:30:29;;;;;;;;;;;20.40;99.90;;;;;;5090084;28;19931;-59
2022/07/06 12:33:11;;;;;;;;;;;20.30;99.90;;;;;;5091203;28;19920;-58
2022/07/06 12:35:40;;;;;;;;;;;20.20;99.90;;;;;;5089767;28;20379;-58
2022/07/06 12:38:08;;;;;;;;;;;20.10;99.90;;;;;;5091323;28;19974;-61
2022/07/06 12:40:36;;;;;;;;;;;20.10;99.90;;;;;;5091450;28;19920;-61
2022/07/06 12:43:05;;;;;;;;;;;20.00;99.90;;;;;;5091182;28;19920;-59
2022/07/06 12:45:32;;;;;;;;;;;20.00;99.90;;;;;;5090985;28;19920;-59
2022/07/06 12:48:00;;;;;;;;;;;20.00;99.90;;;;;;5090854;28;19920;-59
2022/07/06 12:50:32;;;;;;;;;;;19.90;99.90;;;;;;5089784;28;20371;-58
2022/07/06 12:53:00;;;;;;;;;;;19.90;99.90;;;;;;5090579;28;20396;-58
2022/07/06 12:55:28;;;;;;;;;;;19.90;99.90;;;;;;5108760;28;20298;-57
2022/07/06 12:57:57;;;;;;;;;;;19.80;99.90;;;;;;5100704;28;20426;-57
2022/07/06 13:00:24;;;;;;;;;;;19.90;99.90;;;;;;5088157;28;19931;-58
2022/07/06 13:02:53;;;;;;;;;;;20.00;99.90;;;;;;5089319;28;19920;-58
2022/07/06 13:05:38;;;;;;;;;;;20.10;99.90;;;;;;5090650;28;19920;-58
2022/07/06 13:08:06;;;;;;;;;;;20.20;99.90;;;;;;5090388;28;20007;-59
2022/07/06 13:10:35;;;;;;;;;;;20.20;99.90;;;;;;5090025;28;19920;-58
2022/07/06 13:13:03;;;;;;;;;;;20.20;99.90;;;;;;5090231;28;19924;-58
2022/07/06 13:15:30;;;;;;;;;;;20.40;99.90;;;;;;5090558;28;19920;-59
2022/07/06 13:17:57;;;;;;;;;;;20.70;99.90;;;;;;5090114;28;19924;-58
2022/07/06 13:20:25;;;;;;;;;;;21.00;99.90;;;;;;5090284;28;19920;-59
2022/07/06 13:22:52;;;;;;;;;;;21.10;99.90;;;;;;5090137;28;19920;-58
2022/07/06 13:25:20;;;;;;;;;;;21.10;99.90;;;;;;5090119;28;19924;-58
2022/07/06 13:27:47;;;;;;;;;;;21.00;99.90;;;;;;5090261;28;19920;-58
2022/07/06 13:30:15;;;;;;;;;;;20.90;99.90;;;;;;5090035;28;19920;-58
2022/07/06 13:32:43;;;;;;;;;;;20.70;99.90;;;;;;5088723;28;19920;-58
2022/07/06 13:35:10;;;;;;;;;;;20.60;99.90;;;;;;5089864;28;19930;-58
2022/07/06 13:37:38;;;;;;;;;;;20.50;99.90;;;;;;5090337;28;20271;-57
2022/07/06 13:40:06;;;;;;;;;;;20.40;99.90;;;;;;5090484;28;19920;-55
2022/07/06 13:42:33;;;;;;;;;;;20.30;99.90;;;;;;5089653;28;19920;-56
2022/07/06 13:45:00;;;;;;;;;;;20.30;99.90;;;;;;5089684;28;19924;-56
2022/07/06 13:47:28;;;;;;;;;;;20.20;99.90;;;;;;5089643;28;19931;-56
2022/07/06 13:49:55;;;;;;;;;;;20.30;99.90;;;;;;5089910;28;20367;-56
2022/07/06 13:52:22;;;;;;;;;;;20.20;99.90;;;;;;5090204;28;20371;-56
2022/07/06 13:54:50;;;;;;;;;;;20.10;99.90;;;;;;5091021;28;19920;-58
2022/07/06 13:57:17;;;;;;;;;;;20.10;99.90;;;;;;5089805;28;19927;-58
2022/07/06 13:59:46;;;;;;;;;;;20.10;99.90;;;;;;5089791;28;19920;-57
2022/07/06 14:02:13;;;;;;;;;;;20.00;99.90;;;;;;5089785;28;20152;-58
2022/07/06 14:04:41;;;;;;;;;;;20.00;99.90;;;;;;5089570;28;20419;-58
2022/07/06 14:07:09;;;;;;;;;;;20.00;99.90;;;;;;5086510;28;19920;-58
2022/07/06 14:09:36;;;;;;;;;;;19.90;99.90;;;;;;5086769;28;19920;-58
2022/07/06 14:12:04;;;;;;;;;;;19.90;99.90;;;;;;5093783;28;19926;-57
2022/07/06 14:14:31;;;;;;;;;;;20.00;99.90;;;;;;5102331;28;19946;-58
2022/07/06 14:16:59;;;;;;;;;;;19.90;99.90;;;;;;5101022;28;20275;-57
2022/07/06 14:19:26;;;;;;;;;;;19.90;99.90;;;;;;5094249;28;19935;-58
2022/07/06 14:21:54;;;;;;;;;;;19.80;99.90;;;;;;5100897;28;19919;-59
2022/07/06 14:24:21;;;;;;;;;;;19.80;99.90;;;;;;5095177;28;19927;-58
2022/07/06 14:26:52;;;;;;;;;;;19.70;99.90;;;;;;5096296;28;20432;-58
2022/07/06 14:29:19;;;;;;;;;;;19.60;99.90;;;;;;5097107;28;19927;-58
2022/07/06 14:31:47;;;;;;;;;;;19.60;99.90;;;;;;5088676;28;19920;-55